createdAt,value
2022-11-06T00:00:31.918Z,100.00
2022-11-06T00:03:34.948Z,100.00
2022-11-06T00:06:50.283Z,100.00
2022-11-06T00:09:53.314Z,100.00
2022-11-06T00:12:56.129Z,100.00
2022-11-06T00:16:03.582Z,100.00
2022-11-06T00:19:06.575Z,100.00
2022-11-06T00:22:10.567Z,100.00
2022-11-06T00:25:13.712Z,100.00
2022-11-06T00:28:16.367Z,100.00
2022-11-06T00:31:21.080Z,100.00
2022-11-06T00:34:23.807Z,100.00
2022-11-06T00:37:27.960Z,100.00
2022-11-06T00:40:30.884Z,100.00
2022-11-06T00:43:35.698Z,100.00
2022-11-06T00:46:39.013Z,100.00
2022-11-06T00:49:41.769Z,100.00
2022-11-06T00:52:46.573Z,100.00
2022-11-06T00:55:49.262Z,100.00
2022-11-06T00:58:52.753Z,100.00
2022-11-06T01:01:55.851Z,100.00
2022-11-06T01:04:58.876Z,100.00
2022-11-06T01:08:03.106Z,100.00
2022-11-06T01:11:12.283Z,100.00
2022-11-06T01:14:16.964Z,100.00
2022-11-06T01:17:20.143Z,100.00
2022-11-06T01:20:23.108Z,100.00
2022-11-06T01:23:27.151Z,100.00
2022-11-06T01:26:38.281Z,100.00
2022-11-06T01:29:43.673Z,100.00
2022-11-06T01:32:46.341Z,100.00
2022-11-06T01:35:50.853Z,100.00
2022-11-06T01:38:56.709Z,100.00
2022-11-06T01:42:00.228Z,100.00
2022-11-06T01:45:24.557Z,100.00
2022-11-06T01:48:29.259Z,100.00
2022-11-06T01:51:34.907Z,100.00
2022-11-06T01:54:41.866Z,100.00
2022-11-06T01:57:45.312Z,100.00
2022-11-06T02:00:49.530Z,100.00
2022-11-06T02:04:00.345Z,100.00
2022-11-06T02:07:04.485Z,100.00
2022-11-06T02:10:09.711Z,100.00
2022-11-06T02:13:21.359Z,100.00
2022-11-06T02:16:31.892Z,100.00
2022-11-06T02:19:55.538Z,100.00
2022-11-06T02:23:11.090Z,100.00
2022-11-06T02:26:34.048Z,100.00
2022-11-06T02:29:45.828Z,100.00
2022-11-06T02:32:55.734Z,100.00
2022-11-06T02:36:03.391Z,100.00
2022-11-06T02:39:13.326Z,100.00
2022-11-06T02:42:19.832Z,100.00
2022-11-06T02:45:26.682Z,100.00
2022-11-06T02:48:33.978Z,100.00
2022-11-06T02:51:41.454Z,100.00
2022-11-06T02:54:48.721Z,100.00
2022-11-06T02:57:57.049Z,100.00
2022-11-06T03:01:06.011Z,100.00
2022-11-06T03:04:16.974Z,100.00
2022-11-06T03:07:29.292Z,100.00
2022-11-06T03:10:40.151Z,100.00
2022-11-06T03:13:53.899Z,100.00
2022-11-06T03:17:01.519Z,100.00
2022-11-06T03:20:16.458Z,100.00
2022-11-06T03:23:26.375Z,100.00
2022-11-06T03:26:34.822Z,100.00
2022-11-06T03:29:41.723Z,100.00
2022-11-06T03:32:50.368Z,100.00
2022-11-06T03:35:59.320Z,100.00
2022-11-06T03:39:06.709Z,100.00
2022-11-06T03:42:14.498Z,100.00
2022-11-06T03:45:23.047Z,100.00
2022-11-06T03:48:34.800Z,100.00
2022-11-06T03:51:43.299Z,100.00
2022-11-06T03:54:51.410Z,100.00
2022-11-06T03:57:58.179Z,100.00
2022-11-06T04:01:06.258Z,100.00
2022-11-06T04:04:15.620Z,100.00
2022-11-06T04:07:23.922Z,100.00
2022-11-06T04:10:44.084Z,100.00
2022-11-06T04:14:02.551Z,100.00
2022-11-06T04:17:11.467Z,100.00
2022-11-06T04:20:33.512Z,100.00
2022-11-06T04:23:45.663Z,100.00
2022-11-06T04:27:01.398Z,100.00
2022-11-06T04:30:09.639Z,100.00
2022-11-06T04:33:19.215Z,100.00
2022-11-06T04:36:33.421Z,100.00
2022-11-06T04:39:45.853Z,100.00
2022-11-06T04:42:56.047Z,100.00
2022-11-06T04:46:01.960Z,100.00
2022-11-06T04:49:07.383Z,100.00
2022-11-06T04:52:16.727Z,100.00
2022-11-06T04:55:21.861Z,100.00
2022-11-06T04:58:25.583Z,100.00
2022-11-06T05:01:29.055Z,100.00
2022-11-06T05:04:32.694Z,100.00
2022-11-06T05:07:37.241Z,100.00
2022-11-06T05:10:40.375Z,100.00
2022-11-06T05:13:43.112Z,100.00
2022-11-06T05:16:46.324Z,100.00
2022-11-06T05:19:49.626Z,100.00
2022-11-06T05:23:00.460Z,100.00
2022-11-06T05:26:04.470Z,100.00
2022-11-06T05:29:08.174Z,100.00
2022-11-06T05:32:11.038Z,100.00
2022-11-06T05:35:13.772Z,100.00
2022-11-06T05:38:18.226Z,100.00
2022-11-06T05:41:20.921Z,100.00
2022-11-06T05:44:24.122Z,100.00
2022-11-06T05:47:26.900Z,100.00
2022-11-06T05:50:29.712Z,100.00
2022-11-06T05:53:35.879Z,100.00
2022-11-06T05:56:38.963Z,100.00
2022-11-06T05:59:42.054Z,100.00
2022-11-06T06:02:45.492Z,100.00
2022-11-06T06:05:48.382Z,100.00
2022-11-06T06:08:52.525Z,100.00
2022-11-06T06:11:55.856Z,100.00
2022-11-06T06:14:58.990Z,100.00
2022-11-06T06:18:02.369Z,100.00
2022-11-06T06:21:05.926Z,100.00
2022-11-06T06:24:12.335Z,100.00
2022-11-06T06:27:15.481Z,100.00
2022-11-06T06:30:18.558Z,100.00
2022-11-06T06:33:22.064Z,100.00
2022-11-06T06:36:24.859Z,100.00
2022-11-06T06:39:29.566Z,100.00
2022-11-06T06:42:32.856Z,100.00
2022-11-06T06:45:35.999Z,100.00
2022-11-06T06:48:39.504Z,100.00
2022-11-06T06:51:42.693Z,100.00
2022-11-06T06:54:46.782Z,100.00
2022-11-06T06:57:49.868Z,100.00
2022-11-06T07:00:52.658Z,100.00
2022-11-06T07:04:03.738Z,99.51
2022-11-06T07:07:08.442Z,100.00
2022-11-06T07:10:12.959Z,99.38
2022-11-06T07:13:16.337Z,99.71
2022-11-06T07:16:21.617Z,100.00
2022-11-06T07:19:24.361Z,99.79
2022-11-06T07:22:35.337Z,100.00
2022-11-06T07:25:41.042Z,100.00
2022-11-06T07:28:43.836Z,100.00
2022-11-06T07:31:46.662Z,99.26
2022-11-06T07:34:51.286Z,99.73
2022-11-06T07:37:54.713Z,99.50
2022-11-06T07:41:03.330Z,98.67
2022-11-06T07:44:06.227Z,98.93
2022-11-06T07:47:08.944Z,98.24
2022-11-06T07:50:13.001Z,99.33
2022-11-06T07:53:20.525Z,99.01
2022-11-06T07:56:24.585Z,97.10
2022-11-06T07:59:27.359Z,97.03
2022-11-06T08:02:30.524Z,97.52
2022-11-06T08:05:34.879Z,99.10
2022-11-06T08:08:38.280Z,99.56
2022-11-06T08:11:42.598Z,99.25
2022-11-06T08:14:48.137Z,100.00
2022-11-06T08:17:52.766Z,99.95
2022-11-06T08:20:56.387Z,99.43
2022-11-06T08:23:59.538Z,99.37
2022-11-06T08:27:03.784Z,99.46
2022-11-06T08:30:08.391Z,99.53
2022-11-06T08:33:12.357Z,99.38
2022-11-06T08:36:16.005Z,99.32
2022-11-06T08:39:21.133Z,99.40
2022-11-06T08:42:25.911Z,99.46
2022-11-06T08:45:30.082Z,98.55
2022-11-06T08:48:33.165Z,98.05
2022-11-06T08:51:36.107Z,98.34
2022-11-06T08:54:39.263Z,99.11
2022-11-06T08:57:43.363Z,98.69
2022-11-06T09:00:51.006Z,98.36
2022-11-06T09:03:54.534Z,98.43
2022-11-06T09:06:57.595Z,99.03
2022-11-06T09:10:00.878Z,98.75
2022-11-06T09:13:05.094Z,98.77
2022-11-06T09:16:14.319Z,99.23
2022-11-06T09:19:18.525Z,100.00
2022-11-06T09:22:21.272Z,98.72
2022-11-06T09:25:24.021Z,97.67
2022-11-06T09:28:28.322Z,98.03
2022-11-06T09:31:31.308Z,96.75
2022-11-06T09:34:34.095Z,96.21
2022-11-06T09:37:37.363Z,96.95
2022-11-06T09:40:43.331Z,96.15
2022-11-06T09:44:05.569Z,96.95
2022-11-06T09:47:18.255Z,96.69
2022-11-06T09:50:25.421Z,96.84
2022-11-06T09:53:32.331Z,96.43
2022-11-06T09:56:39.316Z,95.38
2022-11-06T09:59:43.805Z,96.53
2022-11-06T10:02:49.571Z,95.65
2022-11-06T10:05:54.671Z,96.52
2022-11-06T10:09:01.136Z,95.91
2022-11-06T10:12:14.169Z,96.29
2022-11-06T10:15:26.207Z,97.19
2022-11-06T10:18:40.683Z,95.83
2022-11-06T10:21:49.545Z,96.53
2022-11-06T10:25:02.054Z,95.84
2022-11-06T10:28:19.642Z,96.05
2022-11-06T10:31:32.633Z,95.96
2022-11-06T10:34:41.127Z,95.41
2022-11-06T10:37:49.869Z,95.60
2022-11-06T10:40:54.224Z,95.29
2022-11-06T10:44:02.622Z,96.04
2022-11-06T10:47:16.690Z,96.34
2022-11-06T10:50:19.942Z,96.10
2022-11-06T10:53:34.421Z,96.57
2022-11-06T10:56:49.600Z,94.92
2022-11-06T10:59:52.634Z,95.12
2022-11-06T11:02:59.282Z,94.02
2022-11-06T11:06:04.145Z,93.85
2022-11-06T11:09:28.260Z,94.21
2022-11-06T11:12:32.903Z,93.18
2022-11-06T11:15:44.562Z,94.21
2022-11-06T11:18:50.587Z,94.58
2022-11-06T11:21:54.734Z,93.56
2022-11-06T11:25:03.319Z,92.12
2022-11-06T11:28:06.381Z,93.31
2022-11-06T11:31:11.967Z,92.57
2022-11-06T11:34:20.043Z,91.62
2022-11-06T11:37:27.062Z,90.72
2022-11-06T11:40:37.490Z,90.33
2022-11-06T11:43:41.033Z,90.72
2022-11-06T11:46:48.374Z,90.46
2022-11-06T11:49:52.734Z,89.94
2022-11-06T11:53:03.190Z,89.80
2022-11-06T11:56:15.115Z,88.05
2022-11-06T11:59:21.004Z,86.69
2022-11-06T12:02:29.466Z,87.49
2022-11-06T12:05:36.391Z,88.42
2022-11-06T12:08:41.339Z,85.86
2022-11-06T12:11:44.548Z,85.92
2022-11-06T12:14:48.259Z,86.73
2022-11-06T12:17:55.475Z,86.23
2022-11-06T12:21:05.383Z,85.92
2022-11-06T12:24:14.721Z,85.66
2022-11-06T12:27:22.999Z,84.43
2022-11-06T12:30:26.504Z,85.34
2022-11-06T12:33:59.941Z,84.93
2022-11-06T12:37:12.369Z,85.93
2022-11-06T12:40:25.064Z,85.32
2022-11-06T12:43:37.420Z,84.28
2022-11-06T12:46:49.839Z,84.10
2022-11-06T12:50:14.760Z,82.72
2022-11-06T12:53:29.969Z,85.07
2022-11-06T12:56:41.254Z,85.11
2022-11-06T12:59:55.549Z,84.00
2022-11-06T13:03:20.240Z,83.81
2022-11-06T13:06:30.328Z,82.59
2022-11-06T13:09:41.974Z,82.47
2022-11-06T13:12:54.008Z,82.79
2022-11-06T13:16:04.891Z,82.36
2022-11-06T13:19:16.150Z,82.38
2022-11-06T13:22:27.273Z,80.82
2022-11-06T13:25:39.801Z,78.96
2022-11-06T13:28:46.274Z,77.80
2022-11-06T13:31:54.227Z,78.83
2022-11-06T13:34:58.087Z,78.84
2022-11-06T13:38:03.679Z,79.00
2022-11-06T13:41:14.401Z,77.62
2022-11-06T13:44:18.840Z,78.79
2022-11-06T13:47:27.758Z,78.13
2022-11-06T13:50:37.438Z,79.04
2022-11-06T13:53:46.761Z,78.42
2022-11-06T13:57:15.957Z,78.27
2022-11-06T14:00:23.761Z,78.60
2022-11-06T14:03:48.088Z,78.74
2022-11-06T14:06:55.676Z,79.08
2022-11-06T14:09:59.992Z,79.01
2022-11-06T14:13:08.813Z,78.11
2022-11-06T14:16:31.696Z,78.64
2022-11-06T14:19:34.459Z,78.49
2022-11-06T14:22:38.757Z,78.95
2022-11-06T14:26:00.130Z,79.24
2022-11-06T14:29:37.281Z,79.44
2022-11-06T14:32:44.827Z,79.20
2022-11-06T14:35:52.796Z,78.77
2022-11-06T14:38:56.181Z,78.84
2022-11-06T14:42:00.711Z,77.88
2022-11-06T14:45:12.233Z,78.38
2022-11-06T14:48:27.574Z,78.57
2022-11-06T14:51:30.737Z,78.70
2022-11-06T14:54:36.242Z,78.76
2022-11-06T14:57:47.572Z,78.29
2022-11-06T15:00:53.385Z,78.64
2022-11-06T15:04:00.122Z,79.15
2022-11-06T15:07:11.548Z,79.40
2022-11-06T15:10:47.553Z,79.10
2022-11-06T15:13:50.362Z,79.71
2022-11-06T15:16:56.696Z,79.74
2022-11-06T15:20:30.673Z,80.03
2022-11-06T15:23:40.210Z,80.01
2022-11-06T15:26:49.610Z,79.98
2022-11-06T15:29:56.310Z,80.24
2022-11-06T15:33:04.185Z,80.48
2022-11-06T15:36:14.673Z,80.68
2022-11-06T15:39:25.051Z,80.75
2022-11-06T15:42:31.626Z,80.72
2022-11-06T15:45:34.851Z,81.23
2022-11-06T15:48:38.089Z,81.92
2022-11-06T15:51:42.656Z,81.72
2022-11-06T15:54:48.660Z,82.44
2022-11-06T15:57:52.495Z,82.82
2022-11-06T16:00:55.291Z,81.91
2022-11-06T16:03:58.734Z,82.35
2022-11-06T16:07:05.745Z,82.95
2022-11-06T16:10:14.174Z,82.57
2022-11-06T16:13:20.231Z,82.75
2022-11-06T16:16:38.715Z,82.77
2022-11-06T16:19:45.027Z,82.63
2022-11-06T16:22:49.266Z,83.07
2022-11-06T16:25:59.139Z,82.49
2022-11-06T16:29:03.145Z,82.72
2022-11-06T16:32:09.360Z,82.74
2022-11-06T16:35:31.263Z,82.12
2022-11-06T16:38:53.475Z,82.23
2022-11-06T16:42:02.158Z,81.91
2022-11-06T16:45:18.103Z,82.04
2022-11-06T16:48:34.554Z,82.64
2022-11-06T16:51:37.581Z,82.83
2022-11-06T16:54:47.426Z,82.59
2022-11-06T16:57:53.686Z,82.77
2022-11-06T17:00:59.848Z,82.68
2022-11-06T17:04:04.445Z,82.77
2022-11-06T17:07:07.268Z,82.67
2022-11-06T17:10:36.421Z,82.19
2022-11-06T17:13:41.677Z,82.57
2022-11-06T17:16:51.026Z,82.33
2022-11-06T17:19:54.104Z,82.62
2022-11-06T17:22:57.242Z,82.07
2022-11-06T17:26:04.451Z,81.93
2022-11-06T17:29:07.328Z,82.37
2022-11-06T17:32:10.022Z,82.75
2022-11-06T17:35:12.825Z,82.08
2022-11-06T17:38:16.647Z,82.07
2022-11-06T17:41:30.977Z,82.77
2022-11-06T17:44:33.727Z,82.67
2022-11-06T17:47:36.879Z,82.99
2022-11-06T17:50:53.596Z,81.59
2022-11-06T17:53:56.771Z,81.88
2022-11-06T17:57:03.272Z,82.45
2022-11-06T18:00:07.801Z,82.77
2022-11-06T18:03:17.781Z,82.56
2022-11-06T18:06:21.125Z,82.49
2022-11-06T18:09:24.902Z,82.36
2022-11-06T18:12:29.477Z,81.20
2022-11-06T18:15:34.375Z,82.10
2022-11-06T18:18:37.571Z,81.80
2022-11-06T18:21:40.862Z,82.34
2022-11-06T18:24:43.555Z,79.97
2022-11-06T18:27:48.250Z,80.84
2022-11-06T18:30:51.129Z,82.11
2022-11-06T18:33:53.951Z,81.78
2022-11-06T18:36:56.696Z,81.81
2022-11-06T18:39:59.459Z,82.20
2022-11-06T18:43:03.562Z,82.16
2022-11-06T18:46:07.738Z,82.81
2022-11-06T18:49:12.049Z,83.14
2022-11-06T18:52:27.743Z,82.95
2022-11-06T18:55:44.551Z,83.71
2022-11-06T18:58:49.276Z,83.36
2022-11-06T19:01:52.196Z,84.29
2022-11-06T19:04:55.113Z,83.70
2022-11-06T19:08:00.477Z,84.16
2022-11-06T19:11:04.941Z,83.72
2022-11-06T19:14:09.170Z,84.28
2022-11-06T19:17:12.223Z,85.08
2022-11-06T19:20:15.545Z,84.20
2022-11-06T19:23:18.652Z,84.85
2022-11-06T19:26:31.199Z,84.41
2022-11-06T19:29:36.426Z,84.34
2022-11-06T19:32:39.288Z,84.83
2022-11-06T19:35:42.109Z,84.81
2022-11-06T19:38:44.893Z,85.80
2022-11-06T19:41:47.712Z,86.22
2022-11-06T19:44:52.068Z,86.26
2022-11-06T19:47:54.865Z,85.66
2022-11-06T19:50:59.990Z,87.00
2022-11-06T19:54:05.651Z,86.80
2022-11-06T19:57:27.654Z,87.12
2022-11-06T20:00:32.765Z,86.36
2022-11-06T20:03:35.678Z,86.86
2022-11-06T20:06:39.900Z,87.16
2022-11-06T20:09:42.738Z,87.21
2022-11-06T20:12:46.207Z,88.23
2022-11-06T20:15:50.239Z,88.39
2022-11-06T20:18:53.699Z,88.87
2022-11-06T20:21:56.476Z,88.30
2022-11-06T20:24:59.261Z,88.78
2022-11-06T20:28:02.251Z,89.23
2022-11-06T20:31:08.389Z,89.70
2022-11-06T20:34:11.246Z,89.88
2022-11-06T20:37:14.122Z,90.19
2022-11-06T20:40:16.997Z,90.10
2022-11-06T20:43:19.703Z,90.87
2022-11-06T20:46:25.128Z,90.67
2022-11-06T20:49:27.991Z,90.84
2022-11-06T20:52:31.036Z,89.85
2022-11-06T20:55:33.849Z,90.14
2022-11-06T20:58:37.248Z,90.98
2022-11-06T21:01:41.534Z,90.90
2022-11-06T21:04:44.403Z,91.18
2022-11-06T21:07:47.264Z,91.59
2022-11-06T21:10:55.109Z,92.06
2022-11-06T21:13:58.128Z,91.87
2022-11-06T21:17:03.373Z,92.24
2022-11-06T21:20:07.018Z,92.90
2022-11-06T21:23:10.056Z,93.19
2022-11-06T21:26:14.558Z,93.59
2022-11-06T21:29:17.634Z,94.01
2022-11-06T21:32:21.758Z,94.73
2022-11-06T21:35:24.482Z,95.30
2022-11-06T21:38:27.432Z,96.25
2022-11-06T21:41:34.244Z,96.75
2022-11-06T21:44:37.502Z,97.00
2022-11-06T21:47:41.547Z,97.55
2022-11-06T21:50:44.429Z,97.78
2022-11-06T21:54:05.835Z,97.04
2022-11-06T21:57:08.861Z,96.84
2022-11-06T22:00:14.537Z,96.83
2022-11-06T22:03:19.211Z,95.97
2022-11-06T22:06:24.674Z,96.19
2022-11-06T22:09:27.630Z,95.50
2022-11-06T22:12:30.596Z,95.28
2022-11-06T22:15:33.651Z,94.82
2022-11-06T22:18:37.832Z,93.85
2022-11-06T22:21:40.974Z,93.08
2022-11-06T22:24:43.930Z,92.43
2022-11-06T22:27:46.683Z,91.43
2022-11-06T22:30:49.659Z,91.38
2022-11-06T22:33:54.389Z,91.12
2022-11-06T22:36:57.475Z,90.02
2022-11-06T22:40:00.265Z,89.23
2022-11-06T22:43:04.122Z,88.82
2022-11-06T22:46:09.544Z,87.57
2022-11-06T22:49:13.910Z,86.98
2022-11-06T22:52:16.680Z,86.61
2022-11-06T22:55:19.736Z,85.84
2022-11-06T22:58:22.480Z,86.35
2022-11-06T23:01:27.187Z,86.35
2022-11-06T23:04:31.277Z,86.43
2022-11-06T23:07:34.076Z,85.72
2022-11-06T23:10:39.083Z,84.86
2022-11-06T23:13:44.064Z,84.52
2022-11-06T23:17:00.981Z,84.04
2022-11-06T23:20:23.377Z,83.88
2022-11-06T23:23:26.766Z,84.27
2022-11-06T23:26:29.456Z,83.83
2022-11-06T23:29:32.840Z,84.06
2022-11-06T23:32:37.719Z,84.13
2022-11-06T23:35:41.812Z,83.82
2022-11-06T23:38:45.753Z,83.54
2022-11-06T23:41:48.491Z,84.32
2022-11-06T23:45:09.555Z,84.50
2022-11-06T23:48:13.527Z,84.53
2022-11-06T23:51:17.613Z,84.27
2022-11-06T23:54:20.585Z,84.77
2022-11-06T23:57:23.302Z,84.46
